Time;durP1;ratioP1;P1;durP2;ratioP2;P2;SDS_P1;SDS_P2;PMS_P1;PMS_P2;Temp;Humidity;BMP_temperature;BMP_pressure;BME280_temperature;BME280_humidity;BME280_pressure;Samples;Min_cycle;Max_cycle;Signal;HPM_P1;HPM_P2
2023/04/06 00:00:47;;;;;;;;;;;;;;;11.10;nan;102208.91;5025064;28;20612;-82
2023/04/06 00:03:13;;;;;;;;;;;;;;;11.03;nan;102201.97;5020829;28;19917;-84
2023/04/06 00:05:38;;;;;;;;;;;;;;;10.96;nan;102202.00;5018068;28;19940;-81
2023/04/06 00:08:04;;;;;;;;;;;;;;;10.95;nan;102203.06;5006681;28;20024;-83
2023/04/06 00:10:29;;;;;;;;;;;;;;;10.96;nan;102202.00;5022391;28;19935;-82
2023/04/06 00:12:56;;;;;;;;;;;;;;;10.96;nan;102202.00;5021271;28;20177;-82
2023/04/06 00:15:21;;;;;;;;;;;;;;;10.93;nan;102183.66;5025807;28;19928;-82
2023/04/06 00:17:47;;;;;;;;;;;;;;;10.91;nan;102193.75;5023585;28;19921;-83
2023/04/06 00:20:12;;;;;;;;;;;;;;;10.93;nan;102202.41;5025785;28;20062;-82
2023/04/06 00:22:37;;;;;;;;;;;;;;;10.93;nan;102190.88;5022712;28;19939;-83
2023/04/06 00:25:03;;;;;;;;;;;;;;;10.93;nan;102194.38;5024421;28;19971;-83
2023/04/06 00:27:28;;;;;;;;;;;;;;;10.89;nan;102193.16;5025044;28;19925;-82
2023/04/06 00:29:54;;;;;;;;;;;;;;;10.87;nan;102187.19;5024692;28;19924;-82
2023/04/06 00:32:19;;;;;;;;;;;;;;;10.85;nan;102186.59;5025121;28;20088;-84
2023/04/06 00:34:45;;;;;;;;;;;;;;;10.86;nan;102190.91;5022785;28;19925;-82
2023/04/06 00:37:11;;;;;;;;;;;;;;;10.89;nan;102185.13;5025569;28;19918;-82
2023/04/06 00:39:36;;;;;;;;;;;;;;;10.87;nan;102190.69;5024961;28;19917;-83
2023/04/06 00:42:06;;;;;;;;;;;;;;;10.89;nan;102182.44;5024066;28;19925;-82
2023/04/06 00:44:32;;;;;;;;;;;;;;;10.87;nan;102182.66;5023318;28;19948;-83
2023/04/06 00:46:57;;;;;;;;;;;;;;;10.81;nan;102182.69;5025298;28;19921;-81
2023/04/06 00:49:23;;;;;;;;;;;;;;;10.79;nan;102182.09;5025116;28;19929;-83
2023/04/06 00:51:48;;;;;;;;;;;;;;;10.79;nan;102174.88;5027139;28;19922;-82
2023/04/06 00:54:13;;;;;;;;;;;;;;;10.80;nan;102176.53;5023121;28;20432;-83
2023/04/06 00:56:39;;;;;;;;;;;;;;;10.80;nan;102178.38;5025315;28;19921;-82
2023/04/06 00:59:05;;;;;;;;;;;;;;;10.79;nan;102169.50;5021259;28;19918;-83
2023/04/06 01:01:32;;;;;;;;;;;;;;;10.78;nan;102167.06;5022906;28;19923;-83
2023/04/06 01:03:57;;;;;;;;;;;;;;;10.78;nan;102175.09;5028233;28;19936;-83
2023/04/06 01:06:23;;;;;;;;;;;;;;;10.71;nan;102166.25;5024080;28;20016;-82
2023/04/06 01:08:48;;;;;;;;;;;;;;;10.70;nan;102169.97;5021418;28;19979;-82
2023/04/06 01:11:13;;;;;;;;;;;;;;;10.67;nan;102168.53;5024660;28;19917;-82
2023/04/06 01:13:39;;;;;;;;;;;;;;;10.69;nan;102160.28;5024816;28;19922;-84
2023/04/06 01:16:05;;;;;;;;;;;;;;;10.70;nan;102161.91;5024449;28;20441;-83
2023/04/06 01:18:30;;;;;;;;;;;;;;;10.71;nan;102163.56;5019457;28;19924;-83
2023/04/06 01:20:56;;;;;;;;;;;;;;;10.72;nan;102162.53;5021237;28;19947;-84
2023/04/06 01:23:21;;;;;;;;;;;;;;;10.72;nan;102160.66;5027855;28;19978;-82
2023/04/06 01:25:47;;;;;;;;;;;;;;;10.76;nan;102163.72;5025255;28;20397;-82
2023/04/06 01:28:12;;;;;;;;;;;;;;;10.72;nan;102157.16;5026336;28;20341;-83
2023/04/06 01:30:37;;;;;;;;;;;;;;;10.73;nan;102166.84;5019318;28;20356;-84
2023/04/06 01:33:03;;;;;;;;;;;;;;;10.76;nan;102169.09;5026066;28;20208;-83
2023/04/06 01:35:28;;;;;;;;;;;;;;;10.76;nan;102167.25;5023474;28;19917;-83
2023/04/06 01:37:54;;;;;;;;;;;;;;;10.77;nan;102176.09;5028630;28;20011;-81
2023/04/06 01:40:20;;;;;;;;;;;;;;;10.77;nan;102170.75;5021902;28;19921;-82
2023/04/06 01:42:46;;;;;;;;;;;;;;;10.74;nan;102182.72;5018993;28;20189;-82
2023/04/06 01:45:11;;;;;;;;;;;;;;;10.72;nan;102179.44;5006729;28;20033;-82
2023/04/06 01:47:36;;;;;;;;;;;;;;;10.73;nan;102175.72;5024713;28;19937;-83
2023/04/06 01:50:05;;;;;;;;;;;;;;;10.77;nan;102181.47;5027977;28;19932;-82
2023/04/06 01:52:30;;;;;;;;;;;;;;;10.72;nan;102176.75;5022533;28;20390;-82
2023/04/06 01:54:55;;;;;;;;;;;;;;;10.71;nan;102176.97;5025946;28;19932;-82
2023/04/06 01:57:21;;;;;;;;;;;;;;;10.67;nan;102186.47;5026311;28;19917;-82
2023/04/06 01:59:46;;;;;;;;;;;;;;;10.62;nan;102184.44;5030097;28;19932;-84
2023/04/06 02:02:12;;;;;;;;;;;;;;;10.59;nan;102180.34;5026163;28;20350;-82
2023/04/06 02:04:38;;;;;;;;;;;;;;;10.58;nan;102181.34;5024557;28;19928;-82
2023/04/06 02:07:03;;;;;;;;;;;;;;;10.54;nan;102182.00;5024908;28;19920;-82
2023/04/06 02:09:29;;;;;;;;;;;;;;;10.52;nan;102184.06;5024205;28;20022;-84
2023/04/06 02:11:55;;;;;;;;;;;;;;;10.47;nan;102182.03;5025440;28;20149;-83
2023/04/06 02:14:20;;;;;;;;;;;;;;;10.46;nan;102185.75;5027534;28;19917;-81
2023/04/06 02:16:46;;;;;;;;;;;;;;;10.43;nan;102186.19;5024108;28;20156;-82
2023/04/06 02:19:11;;;;;;;;;;;;;;;10.42;nan;102181.84;5007837;28;19921;-81
2023/04/06 02:21:36;;;;;;;;;;;;;;;10.42;nan;102184.53;5024549;28;19970;-83
2023/04/06 02:24:02;;;;;;;;;;;;;;;10.39;nan;102168.03;5026104;28;20016;-82
2023/04/06 02:26:27;;;;;;;;;;;;;;;10.36;nan;102177.31;5028312;28;19971;-84
2023/04/06 02:28:52;;;;;;;;;;;;;;;10.38;nan;102174.44;5006096;28;20390;-81
2023/04/06 02:31:18;;;;;;;;;;;;;;;10.36;nan;102171.13;5027714;28;19917;-82
2023/04/06 02:33:43;;;;;;;;;;;;;;;10.32;nan;102167.25;5024203;28;20378;-80
2023/04/06 02:36:08;;;;;;;;;;;;;;;10.28;nan;102166.84;5027528;28;20271;-80
2023/04/06 02:38:34;;;;;;;;;;;;;;;10.28;nan;102166.84;5023649;28;19974;-80
2023/04/06 02:40:59;;;;;;;;;;;;;;;10.26;nan;102166.25;5032176;28;19983;-80
2023/04/06 02:43:25;;;;;;;;;;;;;;;10.23;nan;102164.81;5027656;28;19924;-80
2023/04/06 02:45:50;;;;;;;;;;;;;;;10.18;nan;102161.91;5030488;28;19928;-79
2023/04/06 02:48:15;;;;;;;;;;;;;;;10.16;nan;102157.78;5027223;28;19921;-80
2023/04/06 02:50:41;;;;;;;;;;;;;;;10.11;nan;102166.47;5026993;28;19921;-80
2023/04/06 02:53:06;;;;;;;;;;;;;;;10.05;nan;102167.28;5028243;28;19932;-80
2023/04/06 02:55:31;;;;;;;;;;;;;;;10.02;nan;102162.34;5028147;28;19925;-80
2023/04/06 02:57:57;;;;;;;;;;;;;;;10.00;nan;102159.88;5024881;28;19917;-80
2023/04/06 03:00:22;;;;;;;;;;;;;;;10.02;nan;102165.03;5024569;28;19925;-79
2023/04/06 03:02:48;;;;;;;;;;;;;;;9.99;nan;102166.28;5027062;28;19920;-79
2023/04/06 03:05:13;;;;;;;;;;;;;;;9.97;nan;102162.97;5030297;28;19923;-80
2023/04/06 03:07:38;;;;;;;;;;;;;;;9.94;nan;102171.44;5031630;28;20219;-80
2023/04/06 03:10:04;;;;;;;;;;;;;;;9.97;nan;102172.88;5031323;28;20043;-79
2023/04/06 03:12:29;;;;;;;;;;;;;;;9.98;nan;102161.94;5029901;28;19932;-80
2023/04/06 03:14:55;;;;;;;;;;;;;;;9.99;nan;102174.31;5027976;28;20384;-80
2023/04/06 03:17:20;;;;;;;;;;;;;;;9.96;nan;102172.03;5031856;28;20395;-80
2023/04/06 03:19:46;;;;;;;;;;;;;;;9.90;nan;102170.22;5032296;28;20241;-79
2023/04/06 03:22:11;;;;;;;;;;;;;;;9.88;nan;102171.47;5033263;28;19921;-80
2023/04/06 03:24:36;;;;;;;;;;;;;;;9.84;nan;102179.06;5030525;28;19921;-79
2023/04/06 03:27:02;;;;;;;;;;;;;;;9.82;nan;102178.44;5031435;28;20276;-80
2023/04/06 03:29:27;;;;;;;;;;;;;;;9.80;nan;102175.16;5031812;28;20425;-79
2023/04/06 03:31:52;;;;;;;;;;;;;;;9.78;nan;102176.41;5031928;28;20059;-80
2023/04/06 03:34:17;;;;;;;;;;;;;;;9.75;nan;102179.50;5030760;28;19917;-80
2023/04/06 03:36:43;;;;;;;;;;;;;;;9.71;nan;102176.41;5029734;28;19928;-80
2023/04/06 03:39:08;;;;;;;;;;;;;;;9.67;nan;102177.84;5035782;28;19971;-80
2023/04/06 03:41:33;;;;;;;;;;;;;;;9.64;nan;102187.09;5033996;28;20024;-80
2023/04/06 03:43:59;;;;;;;;;;;;;;;9.62;nan;102183.00;5025591;28;19928;-79
2023/04/06 03:46:24;;;;;;;;;;;;;;;9.61;nan;102192.06;5032390;28;19925;-79
2023/04/06 03:48:50;;;;;;;;;;;;;;;9.58;nan;102198.66;5031559;28;19929;-79
2023/04/06 03:51:15;;;;;;;;;;;;;;;9.54;nan;102196.59;5032035;28;19924;-79
2023/04/06 03:53:40;;;;;;;;;;;;;;;9.49;nan;102199.03;5005259;28;19933;-79
2023/04/06 03:56:06;;;;;;;;;;;;;;;9.47;nan;102199.25;5026478;28;20310;-80
2023/04/06 03:58:31;;;;;;;;;;;;;;;9.45;nan;102203.16;5029211;28;20103;-79
2023/04/06 04:00:56;;;;;;;;;;;;;;;9.42;nan;102208.94;5024776;28;19925;-79
2023/04/06 04:03:23;;;;;;;;;;;;;;;9.39;nan;102208.31;5022502;28;19917;-80
2023/04/06 04:05:49;;;;;;;;;;;;;;;9.36;nan;102206.06;5020481;28;20011;-79
2023/04/06 04:08:15;;;;;;;;;;;;;;;9.33;nan;102211.78;5025333;28;19927;-80
2023/04/06 04:10:40;;;;;;;;;;;;;;;9.33;nan;102216.31;5023221;28;19920;-79
2023/04/06 04:13:05;;;;;;;;;;;;;;;9.29;nan;102215.91;5025338;28;21139;-79
2023/04/06 04:15:31;;;;;;;;;;;;;;;9.28;nan;102210.75;5028877;28;19975;-80
2023/04/06 04:17:56;;;;;;;;;;;;;;;9.29;nan;102220.44;5023869;28;19921;-80
2023/04/06 04:20:21;;;;;;;;;;;;;;;9.26;nan;102216.31;5026709;28;19932;-80
2023/04/06 04:22:47;;;;;;;;;;;;;;;9.24;nan;102218.38;5027544;28;19935;-79
2023/04/06 04:25:12;;;;;;;;;;;;;;;9.21;nan;102213.44;5029989;28;20354;-79
2023/04/06 04:27:38;;;;;;;;;;;;;;;9.18;nan;102224.53;5026043;28;19929;-79
2023/04/06 04:30:03;;;;;;;;;;;;;;;9.18;nan;102229.06;5028784;28;19964;-78
2023/04/06 04:32:29;;;;;;;;;;;;;;;9.17;nan;102224.75;5027197;28;19917;-80
2023/04/06 04:34:54;;;;;;;;;;;;;;;9.14;nan;102225.94;5028354;28;19917;-80
2023/04/06 04:37:20;;;;;;;;;;;;;;;9.13;nan;102226.97;5031128;28;19949;-80
2023/04/06 04:39:45;;;;;;;;;;;;;;;9.11;nan;102234.38;5025926;28;19948;-80
2023/04/06 04:42:11;;;;;;;;;;;;;;;9.06;nan;102231.50;5024285;28;21191;-80
2023/04/06 04:44:36;;;;;;;;;;;;;;;9.01;nan;102236.63;5026942;28;20422;-79
2023/04/06 04:47:01;;;;;;;;;;;;;;;8.95;nan;102235.56;5030239;28;20421;-80
2023/04/06 04:49:27;;;;;;;;;;;;;;;8.87;nan;102238.44;5028559;28;19928;-80
2023/04/06 04:51:52;;;;;;;;;;;;;;;8.78;nan;102237.75;5026232;28;19924;-80
2023/04/06 04:54:18;;;;;;;;;;;;;;;8.72;nan;102227.88;5025904;28;19924;-79
2023/04/06 04:56:44;;;;;;;;;;;;;;;8.67;nan;102233.00;5031538;28;19924;-80
2023/04/06 04:59:10;;;;;;;;;;;;;;;8.60;nan;102234.81;5029728;28;20019;-79
2023/04/06 05:01:35;;;;;;;;;;;;;;;8.56;nan;102236.25;5024397;28;19921;-80
2023/04/06 05:04:01;;;;;;;;;;;;;;;8.53;nan;102236.63;5024184;28;19963;-83
2023/04/06 05:06:26;;;;;;;;;;;;;;;8.51;nan;102235.19;5023154;28;19927;-83
2023/04/06 05:08:52;;;;;;;;;;;;;;;8.53;nan;102238.50;5001459;28;19932;-83
2023/04/06 05:11:17;;;;;;;;;;;;;;;8.55;nan;102231.09;5023253;28;19917;-82
2023/04/06 05:13:42;;;;;;;;;;;;;;;8.57;nan;102237.88;5023246;28;19917;-82
2023/04/06 05:16:08;;;;;;;;;;;;;;;8.64;nan;102243.28;5020780;28;19924;-82
2023/04/06 05:18:33;;;;;;;;;;;;;;;8.71;nan;102244.94;5022780;28;19933;-83
2023/04/06 05:20:58;;;;;;;;;;;;;;;8.80;nan;102240.28;5028344;28;19921;-82
2023/04/06 05:23:24;;;;;;;;;;;;;;;8.88;nan;102249.94;5026000;28;19925;-82
2023/04/06 05:25:49;;;;;;;;;;;;;;;8.96;nan;102252.44;5009108;28;19952;-81
2023/04/06 05:28:15;;;;;;;;;;;;;;;9.04;nan;102246.91;5026066;28;19925;-82
2023/04/06 05:30:42;;;;;;;;;;;;;;;9.12;nan;102240.56;5025275;28;19925;-82
2023/04/06 05:33:07;;;;;;;;;;;;;;;9.19;nan;102250.25;5010571;28;19925;-82
2023/04/06 05:35:32;;;;;;;;;;;;;;;9.25;nan;102252.13;5026197;28;20018;-83
2023/04/06 05:37:58;;;;;;;;;;;;;;;9.29;nan;102248.00;5023229;28;20054;-81
2023/04/06 05:40:23;;;;;;;;;;;;;;;9.34;nan;102250.91;5027400;28;20560;-83
2023/04/06 05:42:49;;;;;;;;;;;;;;;9.40;nan;102251.94;5026842;28;19925;-82
2023/04/06 05:45:16;;;;;;;;;;;;;;;9.48;nan;102250.91;5023587;28;19917;-82
2023/04/06 05:47:43;;;;;;;;;;;;;;;9.55;nan;102255.25;5023978;28;19929;-82
2023/04/06 05:50:09;;;;;;;;;;;;;;;9.57;nan;102255.06;5023682;28;19920;-83
2023/04/06 05:52:34;;;;;;;;;;;;;;;9.65;nan;102254.84;5027676;28;19939;-82
2023/04/06 05:55:00;;;;;;;;;;;;;;;9.76;nan;102253.41;5023208;28;19917;-82
2023/04/06 05:57:25;;;;;;;;;;;;;;;9.80;nan;102250.09;5022139;28;19932;-82
2023/04/06 05:59:51;;;;;;;;;;;;;;;9.87;nan;102250.91;5022668;28;19925;-82
2023/04/06 06:02:16;;;;;;;;;;;;;;;9.92;nan;102258.34;5021414;28;20370;-83
2023/04/06 06:04:42;;;;;;;;;;;;;;;9.99;nan;102249.28;5023443;28;19925;-82
2023/04/06 06:07:07;;;;;;;;;;;;;;;10.04;nan;102256.69;5022354;28;19925;-83
2023/04/06 06:09:32;;;;;;;;;;;;;;;10.16;nan;102254.19;5022683;28;19944;-82
2023/04/06 06:11:58;;;;;;;;;;;;;;;10.22;nan;102248.03;5021412;28;19932;-82
2023/04/06 06:14:23;;;;;;;;;;;;;;;10.24;nan;102257.53;5024010;28;19983;-83
2023/04/06 06:16:48;;;;;;;;;;;;;;;10.32;nan;102263.69;5020806;28;19917;-83
2023/04/06 06:19:14;;;;;;;;;;;;;;;10.39;nan;102261.81;5020170;28;19921;-83
2023/04/06 06:21:39;;;;;;;;;;;;;;;10.44;nan;102262.84;5020235;28;19921;-82
2023/04/06 06:24:05;;;;;;;;;;;;;;;10.51;nan;102260.13;5021253;28;20014;-82
2023/04/06 06:26:31;;;;;;;;;;;;;;;10.59;nan;102260.75;5024018;28;19927;-83
2023/04/06 06:28:56;;;;;;;;;;;;;;;10.71;nan;102262.75;5021739;28;19933;-83
2023/04/06 06:31:24;;;;;;;;;;;;;;;10.81;nan;102269.31;5007997;28;21329;-82
2023/04/06 06:33:51;;;;;;;;;;;;;;;10.89;nan;102265.56;5029300;28;19921;-83
2023/04/06 06:36:17;;;;;;;;;;;;;;;10.94;nan;102265.72;5005992;28;20213;-82
2023/04/06 06:38:42;;;;;;;;;;;;;;;10.99;nan;102271.31;5028510;28;19921;-82
2023/04/06 06:41:08;;;;;;;;;;;;;;;11.03;nan;102269.84;5024357;28;19963;-82
2023/04/06 06:43:33;;;;;;;;;;;;;;;11.13;nan;102272.03;5025631;28;20275;-82
2023/04/06 06:45:58;;;;;;;;;;;;;;;11.20;nan;102272.84;5027150;28;20008;-83
2023/04/06 06:48:24;;;;;;;;;;;;;;;11.29;nan;102271.53;5024476;28;20315;-82
2023/04/06 06:50:50;;;;;;;;;;;;;;;11.36;nan;102277.72;5028828;28;20016;-84
2023/04/06 06:53:15;;;;;;;;;;;;;;;11.48;nan;102270.59;5020857;28;19975;-83
2023/04/06 06:55:40;;;;;;;;;;;;;;;11.47;nan;102282.38;5023813;28;19996;-82
2023/04/06 06:58:06;;;;;;;;;;;;;;;11.56;nan;102274.88;5027664;28;20371;-84
2023/04/06 07:00:32;;;;;;;;;;;;;;;11.67;nan;102284.94;5025429;28;19983;-82
2023/04/06 07:02:57;;;;;;;;;;;;;;;11.82;nan;102270.38;5027199;28;19923;-82
2023/04/06 07:05:22;;;;;;;;;;;;;;;11.95;nan;102271.09;5024539;28;19982;-82
2023/04/06 07:07:48;;;;;;;;;;;;;;;12.07;nan;102269.34;5028837;28;19974;-83
2023/04/06 07:10:13;;;;;;;;;;;;;;;12.17;nan;102263.44;5026966;28;19917;-82
2023/04/06 07:12:38;;;;;;;;;;;;;;;12.24;nan;102277.66;5029011;28;20004;-82
2023/04/06 07:15:04;;;;;;;;;;;;;;;12.36;nan;102267.81;5024049;28;20028;-82
2023/04/06 07:17:30;;;;;;;;;;;;;;;12.46;nan;102269.16;5028691;28;20172;-83
2023/04/06 07:19:55;;;;;;;;;;;;;;;12.56;nan;102264.06;5022604;28;19921;-82
2023/04/06 07:22:20;;;;;;;;;;;;;;;12.70;nan;102277.16;5023433;28;19970;-82
2023/04/06 07:24:46;;;;;;;;;;;;;;;12.85;nan;102276.78;5019235;28;20009;-82
2023/04/06 07:27:11;;;;;;;;;;;;;;;13.00;nan;102274.50;5010037;28;19924;-83
2023/04/06 07:29:36;;;;;;;;;;;;;;;13.16;nan;102274.94;5025574;28;20023;-82
2023/04/06 07:32:02;;;;;;;;;;;;;;;13.27;nan;102279.56;5022062;28;19959;-83
2023/04/06 07:34:27;;;;;;;;;;;;;;;13.38;nan;102276.09;5019614;28;19921;-82
2023/04/06 07:36:53;;;;;;;;;;;;;;;13.46;nan;102272.25;5024319;28;19929;-83
2023/04/06 07:39:19;;;;;;;;;;;;;;;13.49;nan;102269.94;5024167;28;20054;-83
2023/04/06 07:41:44;;;;;;;;;;;;;;;13.61;nan;102284.22;5029276;28;20004;-82
2023/04/06 07:44:09;;;;;;;;;;;;;;;13.72;nan;102276.41;5023915;28;19925;-82
2023/04/06 07:46:36;;;;;;;;;;;;;;;13.80;nan;102278.75;5017100;28;19975;-83
2023/04/06 07:49:02;;;;;;;;;;;;;;;13.80;nan;102276.06;5023573;28;19943;-83
2023/04/06 07:51:27;;;;;;;;;;;;;;;13.84;nan;102285.34;5021713;28;20820;-83
2023/04/06 07:53:52;;;;;;;;;;;;;;;13.94;nan;102277.50;5019319;28;19994;-83
2023/04/06 07:56:18;;;;;;;;;;;;;;;14.07;nan;102274.56;5023617;28;20436;-83
2023/04/06 07:58:43;;;;;;;;;;;;;;;14.20;nan;102273.53;5025622;28;20016;-81
2023/04/06 08:01:09;;;;;;;;;;;;;;;14.24;nan;102273.88;5024138;28;19925;-83
2023/04/06 08:03:35;;;;;;;;;;;;;;;14.35;nan;102278.41;5016680;28;19917;-82
2023/04/06 08:06:00;;;;;;;;;;;;;;;14.30;nan;102278.31;5018225;28;20477;-82
2023/04/06 08:08:26;;;;;;;;;;;;;;;14.37;nan;102273.63;5019379;28;20371;-82
2023/04/06 08:10:51;;;;;;;;;;;;;;;14.48;nan;102280.91;5019755;28;19917;-82
2023/04/06 08:13:16;;;;;;;;;;;;;;;14.67;nan;102274.31;5020724;28;19990;-83
2023/04/06 08:15:42;;;;;;;;;;;;;;;14.81;nan;102281.06;5022624;28;20348;-82
2023/04/06 08:18:08;;;;;;;;;;;;;;;14.89;nan;102277.16;5017584;28;20409;-83
2023/04/06 08:20:34;;;;;;;;;;;;;;;14.96;nan;102277.03;5019795;28;20209;-82
2023/04/06 08:23:00;;;;;;;;;;;;;;;14.91;nan;102285.06;5022394;28;20314;-82
2023/04/06 08:25:25;;;;;;;;;;;;;;;14.95;nan;102272.72;5022165;28;19925;-82
2023/04/06 08:27:51;;;;;;;;;;;;;;;15.06;nan;102282.63;5015093;28;19929;-82
2023/04/06 08:30:18;;;;;;;;;;;;;;;15.10;nan;102276.53;5017246;28;19940;-82
2023/04/06 08:32:44;;;;;;;;;;;;;;;15.25;nan;102275.97;5017877;28;19917;-83
2023/04/06 08:35:09;;;;;;;;;;;;;;;15.37;nan;102271.34;5022811;28;20510;-79
2023/04/06 08:37:34;;;;;;;;;;;;;;;15.54;nan;102278.66;5021840;28;19932;-80
2023/04/06 08:40:00;;;;;;;;;;;;;;;15.54;nan;102286.75;5019184;28;20112;-80
2023/04/06 08:42:26;;;;;;;;;;;;;;;15.62;nan;102272.91;5017276;28;20366;-80
2023/04/06 08:44:52;;;;;;;;;;;;;;;15.73;nan;102279.28;5019822;28;19921;-79
2023/04/06 08:47:17;;;;;;;;;;;;;;;15.79;nan;102276.41;5019172;28;19988;-81
2023/04/06 08:49:44;;;;;;;;;;;;;;;15.81;nan;102278.88;5026211;28;20004;-80
2023/04/06 08:52:10;;;;;;;;;;;;;;;15.97;nan;102278.84;5030277;28;19921;-79
2023/04/06 08:54:36;;;;;;;;;;;;;;;16.06;nan;102270.34;5019673;28;19936;-80
2023/04/06 08:57:02;;;;;;;;;;;;;;;16.08;nan;102273.59;5021373;28;20370;-80
2023/04/06 08:59:27;;;;;;;;;;;;;;;16.23;nan;102277.34;4999121;28;20314;-80
2023/04/06 09:01:53;;;;;;;;;;;;;;;16.30;nan;102272.59;5022608;28;20279;-80
2023/04/06 09:04:18;;;;;;;;;;;;;;;16.44;nan;102270.34;5026648;28;20094;-80
2023/04/06 09:06:44;;;;;;;;;;;;;;;16.52;nan;102267.22;5023537;28;19925;-79
2023/04/06 09:09:09;;;;;;;;;;;;;;;16.54;nan;102266.97;5006189;28;19929;-80
2023/04/06 09:11:46;;;;;;;;;;;;;;;16.63;nan;102265.44;5026244;28;20023;-80
2023/04/06 09:14:11;;;;;;;;;;;;;;;16.76;nan;102265.09;5024606;28;20015;-80
2023/04/06 09:16:41;;;;;;;;;;;;;;;16.94;nan;102260.44;5021049;28;19928;-80
2023/04/06 09:19:06;;;;;;;;;;;;;;;17.07;nan;102266.28;5016052;28;19925;-81
2023/04/06 09:21:32;;;;;;;;;;;;;;;17.22;nan;102258.28;5020764;28;19925;-80
2023/04/06 09:23:58;;;;;;;;;;;;;;;17.32;nan;102257.59;5022140;28;19922;-80
2023/04/06 09:26:24;;;;;;;;;;;;;;;17.51;nan;102266.97;5023848;28;19975;-80
2023/04/06 09:28:53;;;;;;;;;;;;;;;17.51;nan;102261.53;5018955;28;19957;-80
2023/04/06 09:31:23;;;;;;;;;;;;;;;17.66;nan;102258.16;5023177;28;20020;-81
2023/04/06 09:33:49;;;;;;;;;;;;;;;17.86;nan;102267.56;5022385;28;19948;-80
2023/04/06 09:36:15;;;;;;;;;;;;;;;17.94;nan;102264.34;5022387;28;19916;-80
2023/04/06 09:38:54;;;;;;;;;;;;;;;17.96;nan;102267.63;5022638;28;19917;-81
2023/04/06 09:41:22;;;;;;;;;;;;;;;18.09;nan;102259.84;5024394;28;19960;-80
2023/04/06 09:43:49;;;;;;;;;;;;;;;18.34;nan;102252.94;5024484;28;19921;-81
2023/04/06 09:46:14;;;;;;;;;;;;;;;18.59;nan;102260.38;5019428;28;20688;-81
2023/04/06 09:48:40;;;;;;;;;;;;;;;18.66;nan;102247.41;5024343;28;19992;-81
2023/04/06 09:51:06;;;;;;;;;;;;;;;18.66;nan;102250.13;5023866;28;20303;-81
2023/04/06 09:53:35;;;;;;;;;;;;;;;18.64;nan;102255.00;5023848;28;20002;-80
2023/04/06 09:56:02;;;;;;;;;;;;;;;18.71;nan;102242.00;5021564;28;19917;-80
2023/04/06 09:58:33;;;;;;;;;;;;;;;18.77;nan;102240.94;5025802;28;19917;-81
2023/04/06 10:01:02;;;;;;;;;;;;;;;18.87;nan;102249.13;5019850;28;20041;-79
2023/04/06 10:03:47;;;;;;;;;;;;;;;18.85;nan;102245.88;5028926;28;19917;-80
2023/04/06 10:06:13;;;;;;;;;;;;;;;18.75;nan;102248.53;5022929;28;20062;-80
2023/04/06 10:08:42;;;;;;;;;;;;;;;18.79;nan;102246.09;5027559;28;19921;-81
2023/04/06 10:11:11;;;;;;;;;;;;;;;18.95;nan;102248.59;5022294;28;19924;-80
2023/04/06 10:13:36;;;;;;;;;;;;;;;18.84;nan;102237.97;5026349;28;19917;-80
2023/04/06 10:16:02;;;;;;;;;;;;;;;18.83;nan;102239.84;5024479;28;19936;-81
2023/04/06 10:18:28;;;;;;;;;;;;;;;19.05;nan;102241.56;5026190;28;19917;-81
2023/04/06 10:20:55;;;;;;;;;;;;;;;19.37;nan;102244.84;5004959;28;20432;-81
2023/04/06 10:23:21;;;;;;;;;;;;;;;19.28;nan;102235.63;5019640;28;19921;-81
2023/04/06 10:25:59;;;;;;;;;;;;;;;19.33;nan;102233.72;5025557;28;19979;-80
2023/04/06 10:28:25;;;;;;;;;;;;;;;19.46;nan;102237.81;5028908;28;19925;-81
2023/04/06 10:30:56;;;;;;;;;;;;;;;19.63;nan;102228.59;5020782;28;19966;-81
2023/04/06 10:33:22;;;;;;;;;;;;;;;19.72;nan;102238.63;5019377;28;19936;-81
2023/04/06 10:35:47;;;;;;;;;;;;;;;19.75;nan;102229.94;5023603;28;19917;-81
2023/04/06 10:38:14;;;;;;;;;;;;;;;19.87;nan;102235.09;5023724;28;19924;-80
2023/04/06 10:40:40;;;;;;;;;;;;;;;19.94;nan;102232.91;5022935;28;19925;-81
2023/04/06 10:43:09;;;;;;;;;;;;;;;19.92;nan;102229.63;5022690;28;19925;-80
2023/04/06 10:45:35;;;;;;;;;;;;;;;19.99;nan;102237.53;5006359;28;20484;-81
2023/04/06 10:48:00;;;;;;;;;;;;;;;20.03;nan;102231.25;5020449;28;19921;-81
2023/04/06 10:50:29;;;;;;;;;;;;;;;20.15;nan;102226.31;5024328;28;19917;-81
2023/04/06 10:53:02;;;;;;;;;;;;;;;20.23;nan;102231.19;5021014;28;19932;-81
2023/04/06 10:55:28;;;;;;;;;;;;;;;20.42;nan;102228.69;5021125;28;19928;-81
2023/04/06 10:57:53;;;;;;;;;;;;;;;20.50;nan;102227.31;5022629;28;19921;-80
2023/04/06 11:00:19;;;;;;;;;;;;;;;20.56;nan;102220.75;5017186;28;19979;-81
2023/04/06 11:02:45;;;;;;;;;;;;;;;20.62;nan;102216.91;5021507;28;19996;-80
2023/04/06 11:05:11;;;;;;;;;;;;;;;20.74;nan;102214.66;5003228;28;19931;-81
2023/04/06 11:07:36;;;;;;;;;;;;;;;20.93;nan;102222.19;5020085;28;19925;-80
2023/04/06 11:10:02;;;;;;;;;;;;;;;20.94;nan;102218.38;5021054;28;19972;-80
2023/04/06 11:12:28;;;;;;;;;;;;;;;20.76;nan;102211.66;4999685;28;19932;-81
2023/04/06 11:15:03;;;;;;;;;;;;;;;20.78;nan;102206.75;5022598;28;19917;-81
2023/04/06 11:17:30;;;;;;;;;;;;;;;20.90;nan;102211.88;5021382;28;20007;-81
2023/04/06 11:19:55;;;;;;;;;;;;;;;21.08;nan;102213.91;5017827;28;20382;-81
2023/04/06 11:22:21;;;;;;;;;;;;;;;21.08;nan;102211.19;5020810;28;19921;-81
2023/04/06 11:24:48;;;;;;;;;;;;;;;21.26;nan;102216.00;5021166;28;20350;-81
2023/04/06 11:27:15;;;;;;;;;;;;;;;21.33;nan;102211.03;5023640;28;20322;-81
2023/04/06 11:29:41;;;;;;;;;;;;;;;21.43;nan;102201.97;5019678;28;20370;-81
2023/04/06 11:32:07;;;;;;;;;;;;;;;21.52;nan;102202.16;5020172;28;19925;-81
2023/04/06 11:34:35;;;;;;;;;;;;;;;21.58;nan;102199.09;5019325;28;20363;-81
2023/04/06 11:37:02;;;;;;;;;;;;;;;21.57;nan;102202.94;5016716;28;19921;-81
2023/04/06 11:39:28;;;;;;;;;;;;;;;21.63;nan;102200.97;5017694;28;20016;-81
2023/04/06 11:41:55;;;;;;;;;;;;;;;21.87;nan;102201.81;5018173;28;19928;-81
2023/04/06 11:44:30;;;;;;;;;;;;;;;21.87;nan;102204.53;5018572;28;20011;-80
2023/04/06 11:46:56;;;;;;;;;;;;;;;21.81;nan;102204.88;5019805;28;19933;-80
2023/04/06 11:49:22;;;;;;;;;;;;;;;21.57;nan;102202.94;5018240;28;19925;-81
2023/04/06 11:51:47;;;;;;;;;;;;;;;21.27;nan;102201.28;5020087;28;19932;-80
2023/04/06 11:54:12;;;;;;;;;;;;;;;21.04;nan;102201.97;5019492;28;19921;-81
2023/04/06 11:56:38;;;;;;;;;;;;;;;20.84;nan;102200.19;5019997;28;19928;-81
2023/04/06 11:59:03;;;;;;;;;;;;;;;20.62;nan;102194.31;5016143;28;19928;-80
2023/04/06 12:01:29;;;;;;;;;;;;;;;20.44;nan;102195.75;5020726;28;19921;-81
2023/04/06 12:03:54;;;;;;;;;;;;;;;20.33;nan;102194.97;5021426;28;19975;-81
2023/04/06 12:06:20;;;;;;;;;;;;;;;20.21;nan;102194.47;5018508;28;20267;-81
2023/04/06 12:08:45;;;;;;;;;;;;;;;20.14;nan;102188.50;5016293;28;20395;-80
2023/04/06 12:11:11;;;;;;;;;;;;;;;20.12;nan;102191.50;5004032;28;19928;-81
2023/04/06 12:13:36;;;;;;;;;;;;;;;20.17;nan;102183.31;5016415;28;19929;-81
2023/04/06 12:16:01;;;;;;;;;;;;;;;20.16;nan;102187.13;5000541;28;20397;-81
2023/04/06 12:18:27;;;;;;;;;;;;;;;20.18;nan;102184.94;5003237;28;19929;-81
2023/04/06 12:20:52;;;;;;;;;;;;;;;20.23;nan;102179.47;5017943;28;19932;-81
2023/04/06 12:23:19;;;;;;;;;;;;;;;20.29;nan;102174.84;5015438;28;19921;-81
2023/04/06 12:25:44;;;;;;;;;;;;;;;20.30;nan;102179.19;5014689;28;19921;-81
2023/04/06 12:28:10;;;;;;;;;;;;;;;20.40;nan;102179.13;5020762;28;19925;-81
2023/04/06 12:30:35;;;;;;;;;;;;;;;20.47;nan;102171.53;5003393;28;19925;-80
2023/04/06 12:33:01;;;;;;;;;;;;;;;20.54;nan;102173.94;5017276;28;19917;-81
2023/04/06 12:35:26;;;;;;;;;;;;;;;20.60;nan;102177.44;5021693;28;19924;-81
2023/04/06 12:37:52;;;;;;;;;;;;;;;20.69;nan;102168.41;5019641;28;19936;-81
2023/04/06 12:40:17;;;;;;;;;;;;;;;20.80;nan;102174.59;5013938;28;19934;-81
2023/04/06 12:42:42;;;;;;;;;;;;;;;20.81;nan;102174.31;5021244;28;19932;-81
2023/04/06 12:45:08;;;;;;;;;;;;;;;20.79;nan;102167.50;5015876;28;20306;-81
2023/04/06 12:47:35;;;;;;;;;;;;;;;20.72;nan;102173.28;5021170;28;20260;-80
2023/04/06 12:50:01;;;;;;;;;;;;;;;20.65;nan;102166.53;5022980;28;19988;-81
2023/04/06 12:52:27;;;;;;;;;;;;;;;20.61;nan;102170.91;4998262;28;20397;-81